KMKN

Comanche County-City Airport

Comanche, Texas, USA
METAR KMKN 170155Z AUTO 14008KT 10SM OVC004 06/06 A3001 RMK AO2 P0002 T00620062
Observed Flight Rules
Dec-17 @ 01:55 UTC (28 minutes ago) Instrument Flight Rules
Wind Visibility Clouds
140° at 8 knots 10 miles
  • Overcast at 400' AGL
Temperatures Readings Precipitation
Current 6°C / 43°F
Dewpoint 6°C / 43°F
Humidity 100%
Altimeter 30.01" Hg
Pressure 1016 hPa
Elevation 423
Current Rain 0.02
METAR KMKN 170155Z AUTO 14008KT 10SM OVC004 06/06 A3001 RMK AO2 P0002 T00620062
Observed Flight Rules
Dec-17 @ 01:55 UTC
(28 minutes ago)
LIFR
Wind Visibility
140° at 8 knots 10 miles
Clouds
  • Overcast at 400' AGL
Temperature Dewpoint
6°C / 43°F 6°C / 43°F
Humidity Altimeter Pressure
100% 30.01" Hg 1016 hPa
Current Rain
0.02